createdAt,value
2018-10-18T09:28:33.099Z,13.20
2018-10-18T09:31:06.619Z,16.50
2018-10-18T09:33:39.943Z,16.60
2018-10-18T09:36:13.392Z,16.60
2018-10-18T09:38:46.799Z,16.50
2018-10-18T09:41:20.373Z,16.60
2018-10-18T09:44:06.205Z,16.60
2018-10-18T09:46:39.647Z,16.70
2018-10-18T09:49:13.124Z,16.60
2018-10-18T09:51:46.561Z,16.60
2018-10-18T09:54:19.986Z,16.60
2018-10-18T09:56:53.423Z,16.50
2018-10-18T09:59:26.986Z,16.60
2018-10-18T10:02:05.709Z,16.60
2018-10-18T10:04:39.125Z,16.70
2018-10-18T10:07:12.796Z,16.70
2018-10-18T10:09:46.190Z,16.70
2018-10-18T10:12:19.691Z,16.70
2018-10-18T10:14:53.143Z,16.80
2018-10-18T10:17:26.567Z,16.90
2018-10-18T10:20:00.020Z,17.10
2018-10-18T10:22:33.436Z,17.30
2018-10-18T10:25:07.059Z,17.30
2018-10-18T10:27:40.476Z,17.40
2018-10-18T10:30:13.978Z,17.50
2018-10-18T10:32:47.420Z,17.60
2018-10-18T10:35:20.857Z,17.60
2018-10-18T10:37:54.287Z,17.70
2018-10-18T10:40:27.720Z,17.70
2018-10-18T10:43:01.213Z,17.80
2018-10-18T10:45:34.630Z,17.90
2018-10-18T10:48:08.173Z,18.00
2018-10-18T10:50:41.543Z,18.00
2018-10-18T10:53:14.975Z,18.00
2018-10-18T10:55:48.408Z,18.20
2018-10-18T10:58:21.859Z,18.40
2018-10-18T11:01:14.547Z,18.20
2018-10-18T11:03:48.571Z,18.50
2018-10-18T11:06:22.120Z,18.40
2018-10-18T11:08:55.583Z,18.50
2018-10-18T11:11:29.038Z,18.80
2018-10-18T11:14:02.520Z,18.80
2018-10-18T11:16:35.973Z,18.90
2018-10-18T11:19:09.388Z,19.00
2018-10-18T11:21:42.973Z,19.30
2018-10-18T11:24:16.383Z,19.20
2018-10-18T11:26:49.847Z,19.30
2018-10-18T11:29:23.427Z,19.40
2018-10-18T11:31:56.918Z,19.30
2018-10-18T11:34:30.557Z,19.50
2018-10-18T11:37:03.960Z,19.40
2018-10-18T11:39:37.392Z,19.60
2018-10-18T11:42:10.897Z,19.50
2018-10-18T11:44:44.222Z,19.50
2018-10-18T11:47:17.647Z,19.70
2018-10-18T11:49:51.075Z,19.70
2018-10-18T11:52:24.504Z,19.70
2018-10-18T11:54:57.899Z,19.60
2018-10-18T11:57:33.402Z,19.70
2018-10-18T12:00:06.903Z,19.80
2018-10-18T12:02:40.393Z,20.00
2018-10-18T12:05:14.237Z,20.00
2018-10-18T12:07:47.652Z,20.10
2018-10-18T12:10:22.321Z,20.10
2018-10-18T12:12:55.752Z,20.20
2018-10-18T12:15:29.148Z,20.30
2018-10-18T12:18:02.626Z,20.20
2018-10-18T12:20:36.054Z,20.30
2018-10-18T12:23:09.520Z,20.40
2018-10-18T12:25:43.109Z,20.40
2018-10-18T12:28:16.515Z,20.50
2018-10-18T12:30:49.914Z,20.40
2018-10-18T12:33:23.404Z,20.60
2018-10-18T12:35:56.804Z,20.40
2018-10-18T12:38:30.245Z,20.60
2018-10-18T12:41:03.817Z,20.60
2018-10-18T12:43:37.093Z,20.60
2018-10-18T12:46:10.504Z,20.60
2018-10-18T12:48:44.077Z,20.60
2018-10-18T12:51:17.494Z,20.70
2018-10-18T12:53:50.931Z,20.70
2018-10-18T12:56:24.356Z,20.70
2018-10-18T12:58:57.785Z,20.90
2018-10-18T13:01:31.263Z,20.90
2018-10-18T13:04:04.744Z,20.90
2018-10-18T13:06:38.172Z,20.80
2018-10-18T13:09:11.821Z,20.90
2018-10-18T13:11:45.244Z,20.90
2018-10-18T13:14:18.756Z,21.00
2018-10-18T13:16:55.235Z,21.10
2018-10-18T13:19:28.757Z,21.20
2018-10-18T13:22:02.195Z,21.00
2018-10-18T13:24:35.646Z,21.00
2018-10-18T13:27:09.097Z,21.10
2018-10-18T13:29:42.540Z,21.20
2018-10-18T13:32:16.088Z,21.20
2018-10-18T13:34:49.509Z,21.20
2018-10-18T13:37:22.951Z,21.30
2018-10-18T13:39:56.401Z,21.30
2018-10-18T13:42:29.953Z,21.30
2018-10-18T13:45:03.795Z,21.30
2018-10-18T13:47:37.383Z,21.40
2018-10-18T13:50:10.928Z,21.40
2018-10-18T13:52:44.391Z,21.30
2018-10-18T13:55:17.795Z,21.20
2018-10-18T13:57:51.327Z,21.40
2018-10-18T14:00:29.932Z,21.40
2018-10-18T14:03:03.401Z,21.40
2018-10-18T14:05:36.875Z,21.50
2018-10-18T14:08:10.458Z,21.50
2018-10-18T14:10:43.858Z,21.40
2018-10-18T14:13:17.723Z,21.40
2018-10-18T14:15:51.181Z,21.40
2018-10-18T14:18:24.705Z,21.50
2018-10-18T14:20:58.248Z,21.50
2018-10-18T14:23:31.811Z,21.50
2018-10-18T14:26:05.374Z,21.40
2018-10-18T14:28:38.797Z,21.50
2018-10-18T14:31:12.227Z,21.60
2018-10-18T14:33:45.720Z,21.60
2018-10-18T14:36:19.139Z,21.60
2018-10-18T14:38:52.646Z,21.50
2018-10-18T14:41:26.001Z,21.40
2018-10-18T14:43:59.548Z,21.50
2018-10-18T14:46:32.935Z,21.40
2018-10-18T14:49:06.603Z,21.40
2018-10-18T14:51:39.998Z,21.40
2018-10-18T14:54:13.440Z,21.40
2018-10-18T14:56:46.943Z,21.30
2018-10-18T14:59:20.481Z,21.40
2018-10-18T15:01:53.933Z,21.40
2018-10-18T15:04:27.417Z,21.40
2018-10-18T15:07:00.802Z,21.40
2018-10-18T15:09:34.319Z,21.30
2018-10-18T15:12:08.485Z,21.30
2018-10-18T15:14:42.076Z,21.20
2018-10-18T15:17:15.567Z,21.30
2018-10-18T15:19:49.075Z,21.20
2018-10-18T15:22:22.500Z,21.20
2018-10-18T15:24:57.064Z,21.20
2018-10-18T15:27:30.564Z,21.30
2018-10-18T15:30:04.447Z,21.20
2018-10-18T15:32:38.394Z,21.20
2018-10-18T15:35:12.440Z,21.20
2018-10-18T15:37:45.865Z,21.10
2018-10-18T15:40:19.271Z,21.00
2018-10-18T15:42:52.820Z,21.10
2018-10-18T15:45:26.268Z,21.00
2018-10-18T15:47:59.694Z,21.00
2018-10-18T15:50:33.149Z,21.00
2018-10-18T15:53:06.597Z,20.90
2018-10-18T15:55:40.166Z,21.00
2018-10-18T15:58:13.902Z,20.90
2018-10-18T16:00:47.348Z,20.90
2018-10-18T16:03:20.804Z,20.90
2018-10-18T16:05:54.311Z,20.90
2018-10-18T16:08:27.779Z,20.80
2018-10-18T16:11:01.320Z,20.90
2018-10-18T16:13:36.019Z,20.70
2018-10-18T16:16:09.534Z,20.60
2018-10-18T16:18:42.977Z,20.60
2018-10-18T16:21:16.432Z,20.60
2018-10-18T16:23:49.883Z,20.60
2018-10-18T16:26:23.366Z,20.50
2018-10-18T16:28:56.934Z,20.40
2018-10-18T16:31:30.431Z,20.30
2018-10-18T16:34:03.888Z,20.40
2018-10-18T16:36:37.365Z,20.30
2018-10-18T16:39:12.548Z,20.40
2018-10-18T16:41:46.053Z,20.40
2018-10-18T16:44:19.562Z,20.20
2018-10-18T16:46:53.016Z,20.20
2018-10-18T16:49:26.428Z,20.20
2018-10-18T16:51:59.853Z,20.20
2018-10-18T16:54:33.299Z,20.20
2018-10-18T16:57:06.808Z,20.20
2018-10-18T16:59:40.203Z,20.00
2018-10-18T17:02:13.871Z,20.10
2018-10-18T17:04:47.256Z,20.10
2018-10-18T17:07:20.719Z,20.10
2018-10-18T17:09:54.145Z,20.00
2018-10-18T17:12:27.562Z,20.00
2018-10-18T17:15:00.975Z,20.10
2018-10-18T17:17:34.735Z,20.10
2018-10-18T17:20:08.818Z,20.10
2018-10-18T17:22:42.060Z,20.20
2018-10-18T17:25:15.486Z,20.10
2018-10-18T17:27:48.892Z,20.20
2018-10-18T17:30:22.291Z,20.20
2018-10-18T17:32:55.759Z,20.00
2018-10-18T17:35:29.272Z,20.00
2018-10-18T17:38:02.745Z,19.90
2018-10-18T17:40:36.123Z,19.90
2018-10-18T17:43:09.546Z,19.90
2018-10-18T17:45:42.947Z,19.90
2018-10-18T17:48:16.385Z,19.80
2018-10-18T17:50:49.814Z,19.70
2018-10-18T17:53:23.183Z,19.70
2018-10-18T17:55:56.632Z,19.70
2018-10-18T17:58:29.990Z,19.70
2018-10-18T18:01:03.393Z,19.70
2018-10-18T18:03:36.779Z,19.60
2018-10-18T18:06:10.388Z,19.70
2018-10-18T18:08:43.620Z,19.60
2018-10-18T18:11:17.025Z,19.60
2018-10-18T18:13:50.404Z,19.60
2018-10-18T18:16:23.802Z,19.50
2018-10-18T18:18:57.183Z,19.40
2018-10-18T18:21:30.576Z,19.40
2018-10-18T18:24:03.967Z,19.40
2018-10-18T18:26:45.264Z,19.40
2018-10-18T18:29:10.832Z,19.40
2018-10-18T18:31:44.239Z,19.30
2018-10-18T18:34:17.789Z,19.30
2018-10-18T18:36:51.315Z,19.30
2018-10-18T18:39:24.736Z,19.30
2018-10-18T18:41:58.144Z,19.20
2018-10-18T18:44:31.599Z,19.20
2018-10-18T18:47:05.075Z,19.10
2018-10-18T18:49:38.506Z,19.10
2018-10-18T18:52:11.913Z,19.00
2018-10-18T18:54:45.336Z,18.90
2018-10-18T18:57:18.796Z,19.00
2018-10-18T18:59:52.195Z,19.00
2018-10-18T19:02:25.606Z,19.00
2018-10-18T19:04:59.011Z,19.00
2018-10-18T19:07:33.203Z,19.00
2018-10-18T19:10:07.307Z,19.00
2018-10-18T19:12:40.718Z,18.90
2018-10-18T19:15:14.263Z,18.90
2018-10-18T19:17:47.684Z,18.90
2018-10-18T19:20:21.089Z,18.80
2018-10-18T19:22:54.668Z,18.70
2018-10-18T19:25:28.028Z,18.40
2018-10-18T19:28:01.532Z,18.40
2018-10-18T19:30:34.981Z,18.40
2018-10-18T19:33:08.484Z,18.30
2018-10-18T19:35:41.983Z,18.40
2018-10-18T19:38:15.422Z,18.30
2018-10-18T19:40:48.826Z,18.30
2018-10-18T19:43:22.339Z,18.20
2018-10-18T19:45:55.803Z,18.20
2018-10-18T19:48:29.180Z,18.00
2018-10-18T19:51:02.587Z,18.00
2018-10-18T19:53:35.982Z,18.00
2018-10-18T19:56:09.440Z,18.00
2018-10-18T19:58:42.872Z,18.00
2018-10-18T20:01:16.218Z,18.00
2018-10-18T20:03:49.688Z,17.90
2018-10-18T20:06:23.196Z,17.70
2018-10-18T20:08:56.684Z,17.70
2018-10-18T20:11:30.181Z,17.80
2018-10-18T20:14:03.782Z,17.80
2018-10-18T20:16:37.185Z,17.60
2018-10-18T20:19:10.601Z,17.30
2018-10-18T20:21:44.060Z,17.40
2018-10-18T20:24:18.057Z,17.40
2018-10-18T20:26:51.533Z,17.50
2018-10-18T20:29:25.028Z,17.50
2018-10-18T20:31:58.497Z,17.50
2018-10-18T20:34:31.929Z,17.60
2018-10-18T20:37:06.056Z,17.60
2018-10-18T20:39:39.507Z,17.40
2018-10-18T20:42:12.928Z,17.20
2018-10-18T20:44:46.374Z,16.90
2018-10-18T20:47:19.930Z,17.00
2018-10-18T20:49:53.399Z,16.90
2018-10-18T20:52:26.973Z,16.80
2018-10-18T20:55:00.646Z,16.70
2018-10-18T20:57:34.428Z,16.60
2018-10-18T21:00:08.667Z,16.60
2018-10-18T21:02:42.105Z,16.50
2018-10-18T21:05:15.530Z,16.40
2018-10-18T21:07:48.942Z,16.50
2018-10-18T21:10:22.355Z,16.50
2018-10-18T21:12:55.792Z,16.50
2018-10-18T21:15:29.206Z,16.50
2018-10-18T21:18:02.662Z,16.40
2018-10-18T21:20:36.086Z,16.50
2018-10-18T21:23:09.540Z,16.60
2018-10-18T21:25:42.950Z,16.70
2018-10-18T21:28:16.381Z,16.60
2018-10-18T21:30:49.799Z,16.60
2018-10-18T21:33:23.236Z,16.50
2018-10-18T21:35:56.648Z,16.60
2018-10-18T21:38:30.088Z,16.70
2018-10-18T21:41:03.548Z,16.60
2018-10-18T21:43:36.950Z,16.60
2018-10-18T21:46:10.366Z,16.50
2018-10-18T21:48:43.999Z,16.40
2018-10-18T21:51:17.587Z,16.30
2018-10-18T21:53:50.872Z,16.30
2018-10-18T21:56:24.349Z,16.20
2018-10-18T21:58:57.785Z,15.80
2018-10-18T22:01:31.201Z,16.00
2018-10-18T22:04:04.687Z,16.10
2018-10-18T22:06:38.079Z,16.00
2018-10-18T22:09:11.561Z,15.90
2018-10-18T22:11:44.963Z,15.90
2018-10-18T22:14:19.491Z,15.80
2018-10-18T22:16:52.918Z,15.70
2018-10-18T22:19:26.314Z,15.70
2018-10-18T22:21:59.720Z,15.80
2018-10-18T22:24:33.140Z,15.60
2018-10-18T22:27:06.611Z,15.60
2018-10-18T22:29:39.988Z,15.50
2018-10-18T22:32:13.396Z,15.20
2018-10-18T22:34:46.822Z,15.40
2018-10-18T22:37:20.269Z,15.50
2018-10-18T22:39:53.658Z,15.50
2018-10-18T22:42:27.076Z,15.20
2018-10-18T22:45:00.470Z,15.20
2018-10-18T22:47:33.927Z,15.20
2018-10-18T22:50:07.396Z,15.00
2018-10-18T22:52:40.815Z,14.90
2018-10-18T22:55:14.216Z,15.10
2018-10-18T22:57:47.634Z,15.20
2018-10-18T23:00:21.046Z,15.10
2018-10-18T23:02:54.509Z,15.10
2018-10-18T23:05:27.888Z,15.10
2018-10-18T23:08:01.316Z,15.20
2018-10-18T23:10:34.731Z,15.20
2018-10-18T23:13:08.443Z,15.20
2018-10-18T23:15:41.843Z,15.30
2018-10-18T23:18:15.259Z,15.20
2018-10-18T23:20:48.667Z,15.30
2018-10-18T23:23:22.090Z,15.20
2018-10-18T23:25:55.502Z,15.30
2018-10-18T23:28:28.935Z,15.20
2018-10-18T23:31:02.342Z,15.30
2018-10-18T23:33:35.783Z,15.30
2018-10-18T23:36:09.199Z,15.30
2018-10-18T23:38:42.652Z,15.30
2018-10-18T23:41:16.099Z,15.40
2018-10-18T23:43:49.488Z,15.40
2018-10-18T23:46:22.920Z,14.90
2018-10-18T23:48:56.371Z,14.90
2018-10-18T23:51:29.779Z,14.80
2018-10-18T23:54:03.230Z,14.90
2018-10-18T23:56:36.648Z,15.00
2018-10-18T23:59:10.145Z,15.00
